Brandy Bar — WDF7323 — position and weather

sailwx.info

Track history (hours):
 
Tides and Currents Weather Stations Pressure Air Temp Water Temp Dewpoint Dewpoint Depression Visibility Wind Speed Wind Dir Waves Ship Positions

Brandy Bar

Owner: Brandy Bar, Tiburon, CA. More information available from US FCC via Universal Licensing System and Coast Guard Vessel Documentation Center.

Last reported at 2016-Dec-22 20:31 UTC. Time now 2017-Jan-21 21:40 UTC.
Position N 38°04' W 121°52'.
Warning: this ship's position is 30 days out of date.

Type: Towing. MMSI: 367483310.

Date/timePositionNaut miles runAvg speedWind from/ knotsBaromVisibWave heightAir tempDewpointWater temp
2016-Dec-22 20:31N 38°04' W 121°52'6 4.5
2016-Dec-22 19:13N 38°03' W 121°59'4 4.9
2016-Dec-22 18:22N 38°03' W 122°04'4 5.0
2016-Dec-22 17:33N 38°02' W 122°09'0 0.1
2016-Dec-22 16:33N 38°02' W 122°09'1 0.0
2016-Dec-20 21:19N 38°02' W 122°08'10 8.9
2016-Dec-20 20:11N 38°03' W 121°55'4 4.7
2016-Dec-20 19:21N 38°04' W 121°51'3 4.3
2016-Dec-20 18:33N 38°03' W 121°55'6 5.0
2016-Dec-20 17:25N 38°04' W 122°02'5 5.1
2016-Dec-20 16:29N 38°02' W 122°08'2 0.1
2016-Dec-19 22:06N 38°03' W 122°05'12 7.5
2016-Dec-19 20:28N 38°02' W 121°50'3 2.3
2016-Dec-19 19:21N 38°03' W 121°53'4 5.0
2016-Dec-19 18:28N 38°03' W 121°58'5 5.3
2016-Dec-19 17:33N 38°03' W 122°05'4 3.9
2016-Dec-19 16:33N 38°02' W 122°09'13 0.7
2016-Dec-18 22:12N 38°03' W 121°53'4 4.6
2016-Dec-18 21:22N 38°03' W 121°58'4 4.6
2016-Dec-18 20:24N 38°03' W 122°04'4 4.3
2016-Dec-18 19:33N 38°02' W 122°08'  
2016-Dec-15 23:05N 38°02' W 122°09'3 6.0
2016-Dec-15 22:33N 38°04' W 122°13'0 0.0
2016-Dec-15 21:33N 38°04' W 122°13'3 0.1
2016-Dec-14 23:32N 38°03' W 122°09'3 2.7
2016-Dec-14 22:33N 38°03' W 122°13'0 0.3
2016-Dec-14 21:27N 38°03' W 122°12'1 0.8
2016-Dec-14 19:33N 38°04' W 122°14'1 0.9
2016-Dec-14 18:33N 38°04' W 122°13'3 2.8
2016-Dec-14 17:34N 38°03' W 122°09'3 2.7
2016-Dec-14 16:33N 38°03' W 122°13'3 0.2
2016-Dec-13 22:32N 38°03' W 122°09'0 0.0
2016-Dec-13 21:31N 38°03' W 122°09'0 0.0
2016-Dec-13 19:33N 38°03' W 122°09'5 5.1
2016-Dec-13 18:33N 38°04' W 122°16'5 4.8
2016-Dec-13 17:30N 38°03' W 122°09'4 4.4
2016-Dec-13 16:33N 38°04' W 122°15'2 2.0
2016-Dec-13 15:30N 38°03' W 122°12'2 0.1
2016-Dec-13 00:17N 38°03' W 122°09'0 0.0
2016-Dec-12 23:08N 38°03' W 122°09'3 5.1
2016-Dec-12 22:33N 38°03' W 122°13'  
Track history (hours):
 
Tides and Currents Weather Stations Pressure Air Temp Water Temp Dewpoint Dewpoint Depression Visibility Wind Speed Wind Dir Waves Ship Positions

Brandy Bar

Owner: Brandy Bar, Tiburon, CA. More information available from US FCC via Universal Licensing System and Coast Guard Vessel Documentation Center.

Last reported at 2016-Dec-22 20:31 UTC. Time now 2017-Jan-21 21:40 UTC.
Position N 38°04' W 121°52'.
Warning: this ship's position is 30 days out of date.

Type: Towing. MMSI: 367483310.

Date/timePositionNaut miles runAvg speedWind from/ knotsBaromVisibWave heightAir tempDewpointWater temp
2016-Dec-22 20:31N 38°04' W 121°52'6 4.5
2016-Dec-22 19:13N 38°03' W 121°59'4 4.9
2016-Dec-22 18:22N 38°03' W 122°04'4 5.0
2016-Dec-22 17:33N 38°02' W 122°09'0 0.1
2016-Dec-22 16:33N 38°02' W 122°09'1 0.0
2016-Dec-20 21:19N 38°02' W 122°08'10 8.9
2016-Dec-20 20:11N 38°03' W 121°55'4 4.7
2016-Dec-20 19:21N 38°04' W 121°51'3 4.3
2016-Dec-20 18:33N 38°03' W 121°55'6 5.0
2016-Dec-20 17:25N 38°04' W 122°02'5 5.1
2016-Dec-20 16:29N 38°02' W 122°08'2 0.1
2016-Dec-19 22:06N 38°03' W 122°05'12 7.5
2016-Dec-19 20:28N 38°02' W 121°50'3 2.3
2016-Dec-19 19:21N 38°03' W 121°53'4 5.0
2016-Dec-19 18:28N 38°03' W 121°58'5 5.3
2016-Dec-19 17:33N 38°03' W 122°05'4 3.9
2016-Dec-19 16:33N 38°02' W 122°09'13 0.7
2016-Dec-18 22:12N 38°03' W 121°53'4 4.6
2016-Dec-18 21:22N 38°03' W 121°58'4 4.6
2016-Dec-18 20:24N 38°03' W 122°04'4 4.3
2016-Dec-18 19:33N 38°02' W 122°08'  
2016-Dec-15 23:05N 38°02' W 122°09'3 6.0
2016-Dec-15 22:33N 38°04' W 122°13'0 0.0
2016-Dec-15 21:33N 38°04' W 122°13'3 0.1
2016-Dec-14 23:32N 38°03' W 122°09'3 2.7
2016-Dec-14 22:33N 38°03' W 122°13'0 0.3
2016-Dec-14 21:27N 38°03' W 122°12'1 0.8
2016-Dec-14 19:33N 38°04' W 122°14'1 0.9
2016-Dec-14 18:33N 38°04' W 122°13'3 2.8
2016-Dec-14 17:34N 38°03' W 122°09'3 2.7
2016-Dec-14 16:33N 38°03' W 122°13'3 0.2
2016-Dec-13 22:32N 38°03' W 122°09'0 0.0
2016-Dec-13 21:31N 38°03' W 122°09'0 0.0
2016-Dec-13 19:33N 38°03' W 122°09'5 5.1
2016-Dec-13 18:33N 38°04' W 122°16'5 4.8
2016-Dec-13 17:30N 38°03' W 122°09'4 4.4
2016-Dec-13 16:33N 38°04' W 122°15'2 2.0
2016-Dec-13 15:30N 38°03' W 122°12'2 0.1
2016-Dec-13 00:17N 38°03' W 122°09'0 0.0
2016-Dec-12 23:08N 38°03' W 122°09'3 5.1
2016-Dec-12 22:33N 38°03' W 122°13'  

Dump ship's entire track history